Terminal Aerodrome Forecast
Issued by NWS Jackson, MS

Home | Current Version | Previous Version | Text Only | Print | Product List | Glossary On
Versions: 1 2 3 4 5 6 7 8 9 10 11 12
232
FTUS44 KJAN 051720
TAFGLH
TAF
KGLH 051720Z 0518/0618 03011KT 4SM -RA BR OVC006
     FM060200 30010KT 4SM BR VCSH OVC003
     FM061400 29008KT 2SM BR OVC007=

USA.gov is the U.S. government's official web portal to all federal, state and local government web resources and services.